createdAt,value
2022-10-13T00:01:12.869Z,9.60
2022-10-13T00:03:42.293Z,9.50
2022-10-13T00:06:10.851Z,9.30
2022-10-13T00:08:38.612Z,9.30
2022-10-13T00:11:13.019Z,9.20
2022-10-13T00:13:40.254Z,9.20
2022-10-13T00:16:08.604Z,9.10
2022-10-13T00:18:35.855Z,9.10
2022-10-13T00:21:07.964Z,9.10
2022-10-13T00:23:35.659Z,9.10
2022-10-13T00:26:08.546Z,9.00
2022-10-13T00:28:35.887Z,8.90
2022-10-13T00:31:02.820Z,8.90
2022-10-13T00:33:29.860Z,8.90
2022-10-13T00:35:56.784Z,8.90
2022-10-13T00:38:23.867Z,8.90
2022-10-13T00:40:54.475Z,8.90
2022-10-13T00:43:27.608Z,8.90
2022-10-13T00:45:54.926Z,8.90
2022-10-13T00:48:30.403Z,8.90
2022-10-13T00:50:58.816Z,8.90
2022-10-13T00:53:31.971Z,8.90
2022-10-13T00:55:59.631Z,8.80
2022-10-13T00:58:31.558Z,8.80
2022-10-13T01:00:59.295Z,8.90
2022-10-13T01:03:27.072Z,8.90
2022-10-13T01:05:58.092Z,8.90
2022-10-13T01:08:27.090Z,9.00
2022-10-13T01:11:19.493Z,8.90
2022-10-13T01:14:18.475Z,9.00
2022-10-13T01:17:01.341Z,9.00
2022-10-13T01:20:06.100Z,8.90
2022-10-13T01:22:41.792Z,8.90
2022-10-13T01:25:44.189Z,9.00
2022-10-13T01:28:35.154Z,9.10
2022-10-13T01:31:20.071Z,9.00
2022-10-13T01:34:15.600Z,9.10
2022-10-13T01:36:58.143Z,9.10
2022-10-13T01:39:46.352Z,8.90
2022-10-13T01:42:18.790Z,8.90
2022-10-13T01:44:58.024Z,9.20
2022-10-13T01:47:26.691Z,9.10
2022-10-13T01:49:55.152Z,9.30
2022-10-13T01:52:26.482Z,9.40
2022-10-13T01:54:54.803Z,9.30
2022-10-13T01:57:31.812Z,9.30
2022-10-13T02:00:02.214Z,9.30
2022-10-13T02:02:57.172Z,9.30
2022-10-13T02:05:49.445Z,9.30
2022-10-13T02:08:51.148Z,9.50
2022-10-13T02:11:21.525Z,9.50
2022-10-13T02:13:54.247Z,9.60
2022-10-13T02:16:23.695Z,9.60
2022-10-13T02:18:52.200Z,9.90
2022-10-13T02:21:19.322Z,9.90
2022-10-13T02:23:46.477Z,9.80
2022-10-13T02:26:14.097Z,9.70
2022-10-13T02:28:41.684Z,9.80
2022-10-13T02:31:09.480Z,9.80
2022-10-13T02:33:36.575Z,10.00
2022-10-13T02:36:03.807Z,10.10
2022-10-13T02:38:30.958Z,10.00
2022-10-13T02:40:58.018Z,10.00
2022-10-13T02:43:24.996Z,10.10
2022-10-13T02:45:52.060Z,10.30
2022-10-13T02:48:20.209Z,10.10
2022-10-13T02:50:47.821Z,10.10
2022-10-13T02:53:14.748Z,10.10
2022-10-13T02:55:41.820Z,10.10
2022-10-13T02:58:08.835Z,10.00
2022-10-13T03:00:35.784Z,10.10
2022-10-13T03:03:02.977Z,10.10
2022-10-13T03:05:29.920Z,10.10
2022-10-13T03:07:56.980Z,10.30
2022-10-13T03:10:24.006Z,10.30
2022-10-13T03:12:51.982Z,10.20
2022-10-13T03:15:18.921Z,10.10
2022-10-13T03:17:48.612Z,10.10
2022-10-13T03:20:15.858Z,10.10
2022-10-13T03:22:46.058Z,10.10
2022-10-13T03:25:16.873Z,10.20
2022-10-13T03:27:43.764Z,10.20
2022-10-13T03:30:11.569Z,10.20
2022-10-13T03:32:40.663Z,10.20
2022-10-13T03:35:08.299Z,10.30
2022-10-13T03:37:35.265Z,10.40
2022-10-13T03:40:02.163Z,10.30
2022-10-13T03:42:29.135Z,10.40
2022-10-13T03:44:56.675Z,10.50
2022-10-13T03:47:23.885Z,10.50
2022-10-13T03:49:51.119Z,10.50
2022-10-13T03:52:18.393Z,10.50
2022-10-13T03:54:45.529Z,10.50
2022-10-13T03:57:12.565Z,10.50
2022-10-13T03:59:41.211Z,10.40
2022-10-13T04:02:08.321Z,10.40
2022-10-13T04:04:37.085Z,10.30
2022-10-13T04:07:04.061Z,10.40
2022-10-13T04:09:31.085Z,10.60
2022-10-13T04:11:58.054Z,10.70
2022-10-13T04:14:25.049Z,10.70
2022-10-13T04:16:52.112Z,10.60
2022-10-13T04:19:19.033Z,10.60
2022-10-13T04:21:45.959Z,10.60
2022-10-13T04:24:14.395Z,10.60
2022-10-13T04:26:41.692Z,10.60
2022-10-13T04:29:10.347Z,10.60
2022-10-13T04:31:38.586Z,10.60
2022-10-13T04:34:05.891Z,10.50
2022-10-13T04:36:32.814Z,10.50
2022-10-13T04:38:59.711Z,10.60
2022-10-13T04:41:26.854Z,10.70
2022-10-13T04:43:55.007Z,10.80
2022-10-13T04:46:26.951Z,10.60
2022-10-13T04:48:56.587Z,10.60
2022-10-13T04:51:29.300Z,10.60
2022-10-13T04:54:01.149Z,10.60
2022-10-13T04:56:28.957Z,10.50
2022-10-13T04:59:01.641Z,10.40
2022-10-13T05:01:28.649Z,10.50
2022-10-13T05:03:58.555Z,10.60
2022-10-13T05:06:34.515Z,10.60
2022-10-13T05:09:02.105Z,10.40
2022-10-13T05:11:29.838Z,10.30
2022-10-13T05:13:58.227Z,10.20
2022-10-13T05:16:25.987Z,10.30
2022-10-13T05:18:54.657Z,10.20
2022-10-13T05:21:25.072Z,10.10
2022-10-13T05:23:54.373Z,10.10
2022-10-13T05:26:22.953Z,10.10
2022-10-13T05:28:50.127Z,10.10
2022-10-13T05:31:23.136Z,10.30
2022-10-13T05:33:51.851Z,10.30
2022-10-13T05:36:24.919Z,10.10
2022-10-13T05:38:56.939Z,10.20
2022-10-13T05:41:25.862Z,10.20
2022-10-13T05:43:59.461Z,10.20
2022-10-13T05:46:26.628Z,10.20
2022-10-13T05:48:54.076Z,10.20
2022-10-13T05:51:24.607Z,10.20
2022-10-13T05:54:26.423Z,10.20
2022-10-13T05:57:08.577Z,10.10
2022-10-13T05:59:39.876Z,10.00
2022-10-13T06:02:09.738Z,10.00
2022-10-13T06:04:47.735Z,10.10
2022-10-13T06:07:14.891Z,10.40
2022-10-13T06:09:42.496Z,10.30
2022-10-13T06:12:10.244Z,10.20
2022-10-13T06:14:37.481Z,10.20
2022-10-13T06:17:06.952Z,10.20
2022-10-13T06:19:34.130Z,10.20
2022-10-13T06:22:07.837Z,10.40
2022-10-13T06:24:34.844Z,10.40
2022-10-13T06:27:03.967Z,10.60
2022-10-13T06:29:30.918Z,10.60
2022-10-13T06:31:57.790Z,10.60
2022-10-13T06:34:24.712Z,10.60
2022-10-13T06:36:51.645Z,10.70
2022-10-13T06:39:18.609Z,10.80
2022-10-13T06:41:45.584Z,10.70
2022-10-13T06:44:12.510Z,10.60
2022-10-13T06:46:39.388Z,10.60
2022-10-13T06:49:06.419Z,10.70
2022-10-13T06:51:33.335Z,10.70
2022-10-13T06:54:00.507Z,10.60
2022-10-13T06:56:29.888Z,10.80
2022-10-13T06:58:59.174Z,10.80
2022-10-13T07:01:26.074Z,10.90
2022-10-13T07:03:53.058Z,10.90
2022-10-13T07:06:21.149Z,11.00
2022-10-13T07:08:50.015Z,11.10
2022-10-13T07:11:18.674Z,11.20
2022-10-13T07:13:50.170Z,11.10
2022-10-13T07:16:17.596Z,11.20
2022-10-13T07:18:46.816Z,11.40
2022-10-13T07:21:13.804Z,11.30
2022-10-13T07:23:40.851Z,11.50
2022-10-13T07:26:09.432Z,11.90
2022-10-13T07:28:36.479Z,12.10
2022-10-13T07:31:10.998Z,12.20
2022-10-13T07:33:38.632Z,12.20
2022-10-13T07:36:05.749Z,12.40
2022-10-13T07:38:32.984Z,12.40
2022-10-13T07:41:04.865Z,12.30
2022-10-13T07:43:32.204Z,12.30
2022-10-13T07:46:01.199Z,12.40
2022-10-13T07:48:28.684Z,12.80
2022-10-13T07:51:02.903Z,12.90
2022-10-13T07:53:29.856Z,13.20
2022-10-13T07:56:01.123Z,13.20
2022-10-13T07:58:28.592Z,13.10
2022-10-13T08:00:56.032Z,13.50
2022-10-13T08:03:26.187Z,13.40
2022-10-13T08:05:53.302Z,13.70
2022-10-13T08:08:20.467Z,14.70
2022-10-13T08:10:47.479Z,14.80
2022-10-13T08:13:14.313Z,15.10
2022-10-13T08:15:41.555Z,14.60
2022-10-13T08:18:08.751Z,14.90
2022-10-13T08:20:41.403Z,15.10
2022-10-13T08:23:11.219Z,15.40
2022-10-13T08:25:43.019Z,16.60
2022-10-13T08:28:21.128Z,17.20
2022-10-13T08:30:48.370Z,17.40
2022-10-13T08:33:15.211Z,17.90
2022-10-13T08:35:42.592Z,18.70
2022-10-13T08:38:09.526Z,18.90
2022-10-13T08:40:37.416Z,19.00
2022-10-13T08:43:08.025Z,19.30
2022-10-13T08:45:41.351Z,19.10
2022-10-13T08:48:15.773Z,18.40
2022-10-13T08:50:44.238Z,17.70
2022-10-13T08:53:13.214Z,17.80
2022-10-13T08:55:47.608Z,17.20
2022-10-13T08:58:17.616Z,17.30
2022-10-13T09:00:44.758Z,17.20
2022-10-13T09:03:30.504Z,16.80
2022-10-13T09:06:32.768Z,16.80
2022-10-13T09:09:01.264Z,16.60
2022-10-13T09:11:30.257Z,16.50
2022-10-13T09:13:58.840Z,16.80
2022-10-13T09:16:26.735Z,16.90
2022-10-13T09:18:53.703Z,16.70
2022-10-13T09:21:25.079Z,16.70
2022-10-13T09:23:54.100Z,16.50
2022-10-13T09:26:23.170Z,16.20
2022-10-13T09:28:50.737Z,16.10
2022-10-13T09:31:20.720Z,16.30
2022-10-13T09:33:56.688Z,16.50
2022-10-13T09:36:23.785Z,16.40
2022-10-13T09:39:29.181Z,16.30
2022-10-13T09:42:15.015Z,16.00
2022-10-13T09:44:42.097Z,15.90
2022-10-13T09:47:17.300Z,15.90
2022-10-13T09:49:44.520Z,15.80
2022-10-13T09:52:16.199Z,15.70
2022-10-13T09:54:51.225Z,15.70
2022-10-13T09:57:18.238Z,15.60
2022-10-13T10:00:04.502Z,15.70
2022-10-13T10:02:51.179Z,15.60
2022-10-13T10:05:41.622Z,15.70
2022-10-13T10:08:18.479Z,16.00
2022-10-13T10:10:47.295Z,16.30
2022-10-13T10:13:14.749Z,16.40
2022-10-13T10:15:53.361Z,16.40
2022-10-13T10:18:37.062Z,16.20
2022-10-13T10:21:08.313Z,16.00
2022-10-13T10:23:35.168Z,15.90
2022-10-13T10:26:09.550Z,15.80
2022-10-13T10:28:45.611Z,15.70
2022-10-13T10:31:18.806Z,15.60
2022-10-13T10:34:07.818Z,15.60
2022-10-13T10:36:41.446Z,15.60
2022-10-13T10:39:30.546Z,15.60
2022-10-13T10:42:04.273Z,15.60
2022-10-13T10:44:34.963Z,15.60
2022-10-13T10:47:04.227Z,15.40
2022-10-13T10:49:31.058Z,15.20
2022-10-13T10:51:58.886Z,15.30
2022-10-13T10:54:48.376Z,15.30
2022-10-13T10:57:19.310Z,15.50
2022-10-13T11:00:06.315Z,15.80
2022-10-13T11:02:37.456Z,15.90
2022-10-13T11:05:06.345Z,16.40
2022-10-13T11:07:33.556Z,16.40
2022-10-13T11:10:01.512Z,16.80
2022-10-13T11:12:47.644Z,17.00
2022-10-13T11:15:22.494Z,17.20
2022-10-13T11:17:49.841Z,16.80
2022-10-13T11:20:19.966Z,16.70
2022-10-13T11:22:59.258Z,16.80
2022-10-13T11:25:35.525Z,17.10
2022-10-13T11:28:22.977Z,17.80
2022-10-13T11:30:57.526Z,18.20
2022-10-13T11:33:30.544Z,18.10
2022-10-13T11:35:57.804Z,19.20
2022-10-13T11:38:32.297Z,19.20
2022-10-13T11:41:02.297Z,19.00
2022-10-13T11:43:53.774Z,20.50
2022-10-13T11:46:36.689Z,21.50
2022-10-13T11:49:36.142Z,22.80
2022-10-13T11:52:10.400Z,22.80
2022-10-13T11:54:49.441Z,22.30
2022-10-13T11:57:24.371Z,20.90
2022-10-13T11:59:55.450Z,20.90
2022-10-13T12:02:47.283Z,20.80
2022-10-13T12:05:21.488Z,21.10
2022-10-13T12:07:49.474Z,22.00
2022-10-13T12:10:18.692Z,22.50
2022-10-13T12:12:46.990Z,21.20
2022-10-13T12:15:30.001Z,20.90
2022-10-13T12:17:57.268Z,21.30
2022-10-13T12:20:25.600Z,21.60
2022-10-13T12:22:53.036Z,21.50
2022-10-13T12:25:21.082Z,21.00
2022-10-13T12:27:51.430Z,21.30
2022-10-13T12:30:22.949Z,21.20
2022-10-13T12:32:54.276Z,21.60
2022-10-13T12:35:24.490Z,21.60
2022-10-13T12:37:51.992Z,20.90
2022-10-13T12:40:19.326Z,20.20
2022-10-13T12:42:46.521Z,20.00
2022-10-13T12:45:17.862Z,19.90
2022-10-13T12:47:44.804Z,19.70
2022-10-13T12:50:21.699Z,19.90
2022-10-13T12:52:50.365Z,19.90
2022-10-13T12:55:18.431Z,19.20
2022-10-13T12:57:46.338Z,18.50
2022-10-13T13:00:19.522Z,18.90
2022-10-13T13:02:55.652Z,19.00
2022-10-13T13:05:34.972Z,18.90
2022-10-13T13:08:04.299Z,18.90
2022-10-13T13:10:31.334Z,18.80
2022-10-13T13:13:13.420Z,18.50
2022-10-13T13:15:41.331Z,18.20
2022-10-13T13:18:26.521Z,18.00
2022-10-13T13:20:54.106Z,17.70
2022-10-13T13:23:22.219Z,17.60
2022-10-13T13:26:02.465Z,17.40
2022-10-13T13:28:30.648Z,17.50
2022-10-13T13:30:58.904Z,17.50
2022-10-13T13:33:26.055Z,17.50
2022-10-13T13:35:53.819Z,17.60
2022-10-13T13:38:20.725Z,17.70
2022-10-13T13:40:47.861Z,17.70
2022-10-13T13:43:14.782Z,17.70
2022-10-13T13:45:41.692Z,17.80
2022-10-13T13:48:09.333Z,18.00
2022-10-13T13:50:36.796Z,18.00
2022-10-13T13:53:04.875Z,18.10
2022-10-13T13:55:32.289Z,18.20
2022-10-13T13:58:00.474Z,18.30
2022-10-13T14:00:27.540Z,18.20
2022-10-13T14:02:55.781Z,17.90
2022-10-13T14:05:22.766Z,17.60
2022-10-13T14:07:50.579Z,17.60
2022-10-13T14:10:17.588Z,17.50
2022-10-13T14:12:44.618Z,17.70
2022-10-13T14:15:11.561Z,17.40
2022-10-13T14:17:38.722Z,17.40
2022-10-13T14:20:06.062Z,17.40
2022-10-13T14:22:38.028Z,17.40
2022-10-13T14:25:05.712Z,17.40
2022-10-13T14:27:33.789Z,17.40
2022-10-13T14:30:02.498Z,17.40
2022-10-13T14:32:29.553Z,17.30
2022-10-13T14:34:56.669Z,17.40
2022-10-13T14:37:25.071Z,17.60
2022-10-13T14:39:54.800Z,17.70
2022-10-13T14:42:21.765Z,17.90
2022-10-13T14:44:48.710Z,18.00
2022-10-13T14:47:15.713Z,18.20
2022-10-13T14:49:42.603Z,18.40
2022-10-13T14:52:09.912Z,18.60
2022-10-13T14:54:40.018Z,18.70
2022-10-13T14:57:15.363Z,18.70
2022-10-13T14:59:42.714Z,18.60
2022-10-13T15:02:13.251Z,18.70
2022-10-13T15:04:50.843Z,18.80
2022-10-13T15:07:18.649Z,18.70
2022-10-13T15:09:53.067Z,18.60
2022-10-13T15:12:28.225Z,18.30
2022-10-13T15:14:55.103Z,17.90
2022-10-13T15:17:22.011Z,17.70
2022-10-13T15:19:49.034Z,17.60
2022-10-13T15:22:15.902Z,17.50
2022-10-13T15:24:43.511Z,17.40
2022-10-13T15:27:10.387Z,17.30
2022-10-13T15:29:37.456Z,17.20
2022-10-13T15:32:18.631Z,17.00
2022-10-13T15:34:50.303Z,16.80
2022-10-13T15:37:17.286Z,16.70
2022-10-13T15:39:44.391Z,16.70
2022-10-13T15:42:11.671Z,16.70
2022-10-13T15:45:08.187Z,16.50
2022-10-13T15:47:25.350Z,16.60
2022-10-13T15:49:52.284Z,16.70
2022-10-13T15:52:19.509Z,16.70
2022-10-13T15:54:47.054Z,16.60
2022-10-13T15:57:14.573Z,16.40
2022-10-13T15:59:41.374Z,16.20
2022-10-13T16:02:09.309Z,16.20
2022-10-13T16:04:37.582Z,16.10
2022-10-13T16:07:05.106Z,16.00
2022-10-13T16:09:31.938Z,15.90
2022-10-13T16:11:58.746Z,15.90
2022-10-13T16:14:25.609Z,15.80
2022-10-13T16:16:52.474Z,15.70
2022-10-13T16:19:19.303Z,15.80
2022-10-13T16:21:46.983Z,15.70
2022-10-13T16:24:14.793Z,15.60
2022-10-13T16:26:41.748Z,15.60
2022-10-13T16:29:08.603Z,15.60
2022-10-13T16:31:35.523Z,15.60
2022-10-13T16:34:02.347Z,15.50
2022-10-13T16:36:29.182Z,15.40
2022-10-13T16:38:56.068Z,15.50
2022-10-13T16:41:23.755Z,15.40
2022-10-13T16:43:50.836Z,15.30
2022-10-13T16:46:18.991Z,15.30
2022-10-13T16:48:46.240Z,15.20
2022-10-13T16:51:14.476Z,15.20
2022-10-13T16:53:41.655Z,15.20
2022-10-13T16:56:08.954Z,15.20
2022-10-13T16:58:35.796Z,15.00
2022-10-13T17:01:08.793Z,14.80
2022-10-13T17:03:39.251Z,14.70
2022-10-13T17:06:06.262Z,14.60
2022-10-13T17:08:33.247Z,14.50
2022-10-13T17:11:01.848Z,14.40
2022-10-13T17:13:29.873Z,14.40
2022-10-13T17:15:57.231Z,14.30
2022-10-13T17:18:24.622Z,14.20
2022-10-13T17:20:52.536Z,14.10
2022-10-13T17:23:19.658Z,14.10
2022-10-13T17:25:46.800Z,14.10
2022-10-13T17:28:14.174Z,13.90
2022-10-13T17:30:41.494Z,13.90
2022-10-13T17:33:08.887Z,13.90
2022-10-13T17:35:35.705Z,13.90
2022-10-13T17:38:02.744Z,13.90
2022-10-13T17:40:29.592Z,14.10
2022-10-13T17:42:56.590Z,14.00
2022-10-13T17:45:24.389Z,14.00
2022-10-13T17:47:51.714Z,13.90
2022-10-13T17:50:22.294Z,13.90
2022-10-13T17:52:49.123Z,13.80
2022-10-13T17:55:16.004Z,13.60
2022-10-13T17:57:42.922Z,13.60
2022-10-13T18:00:10.040Z,13.50
2022-10-13T18:02:39.587Z,13.50
2022-10-13T18:05:06.531Z,13.40
2022-10-13T18:07:33.517Z,13.40
2022-10-13T18:10:00.545Z,13.40
2022-10-13T18:12:27.494Z,13.40
2022-10-13T18:14:54.468Z,13.50
2022-10-13T18:17:21.453Z,13.70
2022-10-13T18:19:49.382Z,13.80
2022-10-13T18:22:17.398Z,13.80
2022-10-13T18:24:44.330Z,13.70
2022-10-13T18:27:11.148Z,13.70
2022-10-13T18:29:37.964Z,13.60
2022-10-13T18:32:05.131Z,13.60
2022-10-13T18:34:31.983Z,13.60
2022-10-13T18:36:58.910Z,13.50
2022-10-13T18:39:26.589Z,13.50
2022-10-13T18:41:54.200Z,13.50
2022-10-13T18:44:21.434Z,13.60
2022-10-13T18:46:52.099Z,13.60
2022-10-13T18:49:21.435Z,13.80
2022-10-13T18:51:51.969Z,13.90
2022-10-13T18:54:18.946Z,13.80
2022-10-13T18:56:45.794Z,13.70
2022-10-13T18:59:12.881Z,13.80
2022-10-13T19:01:40.848Z,13.70
2022-10-13T19:04:08.692Z,13.60
2022-10-13T19:06:35.648Z,13.60
2022-10-13T19:09:04.319Z,13.50
2022-10-13T19:11:34.628Z,13.50
2022-10-13T19:14:01.894Z,13.60
2022-10-13T19:16:29.956Z,13.60
2022-10-13T19:18:56.789Z,13.60
2022-10-13T19:21:23.579Z,13.60
2022-10-13T19:23:50.580Z,13.50
2022-10-13T19:26:23.833Z,13.50
2022-10-13T19:28:55.199Z,13.50
2022-10-13T19:31:23.372Z,13.50
2022-10-13T19:33:50.993Z,13.60
2022-10-13T19:36:41.310Z,13.60
2022-10-13T19:39:13.487Z,13.90
2022-10-13T19:41:40.491Z,13.80
2022-10-13T19:44:07.412Z,13.70
2022-10-13T19:46:38.550Z,13.60
2022-10-13T19:49:05.505Z,13.80
2022-10-13T19:51:33.506Z,13.90
2022-10-13T19:54:01.503Z,13.70
2022-10-13T19:56:31.582Z,13.60
2022-10-13T19:58:58.567Z,13.60
2022-10-13T20:01:25.387Z,13.50
2022-10-13T20:03:52.775Z,13.50
2022-10-13T20:06:20.027Z,13.30
2022-10-13T20:08:46.971Z,13.30
2022-10-13T20:11:19.342Z,13.20
2022-10-13T20:13:49.505Z,13.20
2022-10-13T20:16:17.598Z,13.20
2022-10-13T20:18:44.972Z,13.20
2022-10-13T20:21:12.373Z,13.20
2022-10-13T20:23:40.913Z,13.20
2022-10-13T20:26:09.243Z,13.20
2022-10-13T20:28:41.935Z,13.30
2022-10-13T20:31:11.503Z,13.30
2022-10-13T20:33:38.673Z,13.40
2022-10-13T20:36:07.799Z,13.40
2022-10-13T20:38:35.989Z,13.50
2022-10-13T20:41:10.510Z,13.70
2022-10-13T20:43:37.359Z,13.80
2022-10-13T20:46:06.108Z,13.60
2022-10-13T20:48:57.681Z,13.60
2022-10-13T20:51:22.176Z,13.60
2022-10-13T20:53:49.253Z,13.60
2022-10-13T20:56:18.178Z,13.60
2022-10-13T20:58:45.362Z,13.70
2022-10-13T21:01:12.416Z,13.80
2022-10-13T21:03:40.192Z,13.90
2022-10-13T21:06:09.295Z,13.80
2022-10-13T21:08:36.176Z,13.70
2022-10-13T21:11:09.931Z,13.50
2022-10-13T21:13:37.658Z,13.40
2022-10-13T21:16:10.130Z,13.30
2022-10-13T21:18:37.303Z,13.10
2022-10-13T21:21:05.446Z,13.10
2022-10-13T21:23:32.536Z,13.10
2022-10-13T21:26:06.680Z,13.00
2022-10-13T21:28:34.286Z,13.10
2022-10-13T21:31:08.204Z,13.00
2022-10-13T21:33:36.545Z,13.10
2022-10-13T21:36:07.282Z,13.10
2022-10-13T21:38:34.179Z,13.20
2022-10-13T21:41:03.734Z,13.00
2022-10-13T21:43:30.604Z,13.00
2022-10-13T21:45:57.573Z,12.90
2022-10-13T21:48:24.359Z,12.80
2022-10-13T21:50:51.205Z,12.90
2022-10-13T21:53:18.202Z,13.00
2022-10-13T21:55:44.975Z,13.00
2022-10-13T21:58:11.788Z,12.90
2022-10-13T22:00:38.679Z,12.90
2022-10-13T22:03:05.667Z,12.90
2022-10-13T22:05:32.431Z,13.00
2022-10-13T22:07:59.213Z,13.00
2022-10-13T22:10:26.035Z,13.20
2022-10-13T22:12:54.429Z,13.10
2022-10-13T22:15:21.364Z,13.10
2022-10-13T22:17:48.207Z,13.10
2022-10-13T22:20:15.036Z,13.30
2022-10-13T22:22:41.811Z,13.40
2022-10-13T22:25:08.738Z,13.40
2022-10-13T22:27:35.919Z,13.30
2022-10-13T22:30:02.895Z,13.30
2022-10-13T22:32:29.723Z,13.30
2022-10-13T22:34:56.511Z,13.50
2022-10-13T22:37:23.508Z,13.40
2022-10-13T22:39:50.455Z,13.20
2022-10-13T22:42:17.339Z,13.30
2022-10-13T22:44:44.177Z,13.20
2022-10-13T22:47:11.255Z,13.30
2022-10-13T22:49:38.026Z,13.30
2022-10-13T22:52:04.883Z,13.50
2022-10-13T22:54:31.689Z,13.30
2022-10-13T22:56:58.535Z,13.40
2022-10-13T22:59:25.415Z,13.30
2022-10-13T23:01:52.232Z,13.20
2022-10-13T23:04:19.052Z,13.20
2022-10-13T23:06:45.848Z,13.20
2022-10-13T23:09:13.245Z,13.30
2022-10-13T23:11:40.266Z,13.30
2022-10-13T23:14:08.269Z,13.20
2022-10-13T23:16:35.135Z,13.20
2022-10-13T23:19:02.041Z,13.40
2022-10-13T23:21:29.806Z,13.40
2022-10-13T23:23:57.667Z,13.50
2022-10-13T23:26:24.731Z,13.40
2022-10-13T23:28:52.833Z,13.50
2022-10-13T23:31:19.776Z,13.50
2022-10-13T23:33:46.607Z,13.50
2022-10-13T23:36:17.799Z,13.40
2022-10-13T23:38:48.006Z,13.40
2022-10-13T23:41:15.532Z,13.30
2022-10-13T23:43:43.116Z,13.20
2022-10-13T23:46:10.794Z,13.30
2022-10-13T23:48:38.039Z,13.20
2022-10-13T23:51:05.586Z,13.20
2022-10-13T23:53:37.091Z,13.30
2022-10-13T23:56:05.205Z,13.30
2022-10-13T23:58:32.282Z,13.30
